Sedgwick Reserve, California Weather observations

Data are for 10 minute period ending at time listed.
 Day   Time   Solar   Ave.   Ave.  Ave.  Vector  Max.   Baro.   Total    
  of    of     Rad.   Air    Rel.  Wind   Wind   Wind  Press.  Precip.   
Year   Day            Temp.  Hum.  Speed  Dir.   Gust                    
2014   (PST)  Kw/m2    F      %     mph   deg.    mph    mb.     in.     
-------------------------------------------------------------------------
 211   10:00   0.43   83.7    41    8.9   176    13.8   973.4    0.00 
 211   10:10   0.75   84.6    39    6.6   197    11.5   973.5    0.00 
 211   10:20   0.84   87.4    35    4.8   189    10.6   973.5    0.00 
 211   10:30   0.87   89.2    33    6.1   227    12.3   973.3    0.00 
 211   10:40   0.89   90.1    32    7.4   245    12.6   973.2    0.00 
 211   10:50   0.99   90.1    32    9.8   255    14.6   973.0    0.00 
 211   11:00   0.84   90.1    33    9.6   251    14.7   973.0    0.00 
 211   11:10   0.92   89.9    33   11.2   259    15.8   973.0    0.00 
 211   11:20   0.80   90.6    33    8.6   275    12.1   972.9    0.00 
 211   11:30   0.77   90.9    32   10.2   257    16.7   972.8    0.00 
 211   11:40   0.92   91.1    32    8.7   265    15.6   972.8    0.00 
 211   11:50   0.91   92.6    32    7.0   256    12.7   972.8    0.00 
 211   12:00   0.98   92.5    31    8.6   278    14.8   972.7    0.00 
 211   12:10   0.83   93.1    29    8.5   296    14.9   972.5    0.00 
 211   12:20   0.64   91.3    29   10.1   273    17.0   972.5    0.00 
 211   12:30   0.46   90.3    30   10.1   277    15.6   972.6    0.00 
 211   12:40   1.05   90.4    28   12.5   271    19.3   972.7    0.00 
 211   12:50   1.16   91.2    28   11.0   277    17.5   972.8    0.00 
 211   13:00   0.97   91.7    28   11.0   284    18.2   972.7    0.00 
 211   13:10   1.00   90.6    30   12.8   269    20.6   972.7    0.00 
 211   13:20   0.49   88.6    32   11.3   272    17.5   972.7    0.00 
 211   13:30   0.58   88.7    32    8.7   285    13.2   972.9    0.00 
 211   13:40   0.67   88.9    28   10.5   308    15.6   972.9    0.00 
 211   13:50   0.73   88.4    27   12.1   291    20.2   972.8    0.00 
 211   14:00   0.46   87.9    27   11.8   284    16.5   972.8    0.00 
 211   14:10   0.41   87.3    27    9.9   280    16.8   972.7    0.00 
 211   14:20   0.36   86.5    28   10.3   273    15.6   972.7    0.00 
 211   14:30   0.52   86.4    26   11.6   262    16.2   972.8    0.00 
 211   14:40   0.77   86.6    25   12.3   261    19.4   972.6    0.00 
 211   14:50   0.69   88.9    24   10.0   274    16.9   972.6    0.00 
 211   15:00   0.69   90.4    24   11.2   273    20.1   972.4    0.00 
 211   15:10   0.58   89.4    24   11.5   259    18.4   972.3    0.00 
 211   15:20   0.69   89.4    22   12.5   260    18.5   972.1    0.00 
 211   15:30   0.58   89.5    23   10.7   265    17.9   972.1    0.00 
 211   15:40   0.53   90.3    23    8.6   251    12.9   972.1    0.00 
 211   15:50   0.60   90.5    24    7.9   251    14.7   972.0    0.00 
 211   16:00   0.55   91.4    25    9.0   263    15.2   971.9    0.00 
 211   16:10   0.53   90.6    26    9.8   267    14.8   971.8    0.00 
 211   16:20   0.49   91.3    26    9.9   266    15.3   971.7    0.00 
 211   16:30   0.46   90.8    27   10.2   268    16.2   971.5    0.00 
 211   16:40   0.42   90.9    27    9.9   269    13.8   971.4    0.00 
 211   16:50   0.39   90.9    27   10.0   263    14.9   971.4    0.00 
 211   17:00   0.36   90.3    28    9.9   260    14.2   971.4    0.00 
 211   17:10   0.33   88.2    32   12.2   254    17.0   971.3    0.00 
 211   17:20   0.29   87.8    32   10.7   263    15.7   971.4    0.00 
 211   17:30   0.26   87.1    33   11.2   257    15.5   971.4    0.00 
 211   17:40   0.22   86.6    33    9.9   266    16.7   971.6    0.00 
 211   17:50   0.18   85.5    34    9.7   272    15.3   971.8    0.00 
 211   18:00   0.15   85.3    34    4.8   256     8.8   971.9    0.00 
 211   18:10   0.12   84.4    35    5.4   257    11.2   972.0    0.00 
 211   18:20   0.04   82.1    36    8.2   255    13.5   972.1    0.00 
 211   18:30   0.02   80.1    37    9.9   266    15.8   972.2    0.00 
 211   18:40   0.01   78.7    40    7.7   255    12.0   972.3    0.00 
 211   18:50   0.01   78.1    41    7.4   266    10.7   972.3    0.00 
 211   19:00   0.01   77.6    42    4.1   267     7.7   972.4    0.00 
 211   19:10   0.00   77.2    43    3.1   222     5.3   972.6    0.00 
 211   19:20   0.00   77.0    43    2.4   128     4.6   972.8    0.00 
 211   19:30   0.00   75.8    48    2.5    88     5.6   972.9    0.00 
 211   19:40   0.00   74.8    51    3.3   123     7.6   972.9    0.00 
 211   19:50   0.00   73.9    54    3.1   120     6.0   972.9    0.00 
 211   20:00   0.00   73.1    56    3.0   127     5.3   972.9    0.00 
 211   20:10   0.00   72.5    57    2.8   111     5.0   972.9    0.00 
 211   20:20   0.00   71.8    59    3.2   111     5.3   972.8    0.00 
 211   20:30   0.00   71.2    60    2.7   126     4.8   972.8    0.00 
 211   20:40   0.00   70.6    62    1.8   110     3.2   972.9    0.00 
 211   20:50   0.00   70.0    63    1.7    42     2.5   973.0    0.00 
 211   21:00   0.00   69.7    64    1.9     6     3.4   973.0    0.00 
 211   21:10   0.00   68.7    64    4.2   359     5.1   973.0    0.00 
 211   21:20   0.00   68.2    64    3.0   351     4.5   972.9    0.00 
 211   21:30   0.00   68.6    62    0.7   282     2.1   972.9    0.00 
 211   21:40   0.00   68.9    62    0.5   204     1.5   972.9    0.00 
 211   21:50   0.00   68.5    60    0.7   221     2.5   973.0    0.00 
 211   22:00   0.00   68.3    61    2.3   205     3.4   973.0    0.00 
 211   22:10   0.00   68.3    61    0.7   240     2.0   973.0    0.00 
 211   22:20   0.00   68.1    63    2.2   114     5.0   973.0    0.00 
 211   22:30   0.00   67.4    68    3.1   106     5.0   973.0    0.00 
 211   22:40   0.00   66.4    71    3.7   130     5.3   972.9    0.00 
 211   22:50   0.00   65.8    73    3.3   127     5.6   972.9    0.00 
 211   23:00   0.00   65.2    74    3.2   118     5.0   972.9    0.00 
 211   23:10   0.00   64.5    76    3.0   121     4.5   972.9    0.00 
 211   23:20   0.00   63.7    78    3.3   114     5.6   972.7    0.00 
 211   23:30   0.00   62.9    79    3.1   121     5.8   972.6    0.00 
 211   23:40   0.00   62.3    81    3.1   120     5.5   972.6    0.00 
 211   23:50   0.00   61.9    82    3.1   122     4.7   972.6    0.00 
 212    0:00   0.00   61.5    83    2.8   110     4.6   972.6    0.00 
 212    0:10   0.00   61.1    84    1.2    84     2.6   972.5    0.00 
 212    0:20   0.00   60.9    85    1.1    76     1.8   972.4    0.00 
 212    0:30   0.00   60.7    85    0.7    86     1.2   972.3    0.00 
 212    0:40   0.00   60.7    86    1.0   116     1.5   972.3    0.00 
 212    0:50   0.00   60.6    86    0.7    98     1.4   972.3    0.00 
 212    1:00   0.00   60.5    86    0.2    50     0.9   972.3    0.00 
 212    1:10   0.00   60.0    85    0.3    18     2.3   972.2    0.00 
 212    1:20   0.00   59.4    85    1.6     4     2.5   972.2    0.00 
 212    1:30   0.00   59.3    84    0.3   236     1.2   972.2    0.00 
 212    1:40   0.00   59.3    84    0.8    38     1.2   972.2    0.00 
 212    1:50   0.00   59.1    84    1.0    34     2.1   972.1    0.00 
 212    2:00   0.00   58.8    84    1.2    12     2.3   972.1    0.00 
 212    2:10   0.00   58.7    84    1.0    24     1.8   971.9    0.00 
 212    2:20   0.00   58.4    83    0.3   359     2.0   971.8    0.00 
 212    2:30   0.00   58.3    83    0.9   219     2.0   971.8    0.00 
 212    2:40   0.00   58.3    83    0.2   256     0.9   971.8    0.00 
 212    2:50   0.00   58.1    83    0.5    44     2.1   971.8    0.00 
 212    3:00   0.00   57.9    83    0.4    39     2.0   971.8    0.00 
 212    3:10   0.00   57.8    85    1.3   113     2.2   971.8    0.00 
 212    3:20   0.00   57.5    85    0.3   100     1.5   971.7    0.00 
 212    3:30   0.00   57.3    85    0.3    80     1.6   971.7    0.00 
 212    3:40   0.00   57.2    85    0.6    30     1.6   971.7    0.00 
 212    3:50   0.00   57.2    87    0.4    34     1.6   971.7    0.00 
 212    4:00   0.00   56.6    87    1.1    23     2.9   971.7    0.00 
 212    4:10   0.00   56.4    87    0.3    36     1.2   971.7    0.00 
 212    4:20   0.00   56.4    87    0.7   347     1.6   971.8    0.00 
 212    4:30   0.00   56.2    87    1.2     0     2.9   971.8    0.00 
 212    4:40   0.00   56.1    87    0.5   248     1.5   971.8    0.00 
 212    4:50   0.00   56.0    86    0.5   230     2.3   971.8    0.00 
 212    5:00   0.00   56.0    86    0.1   258     0.7   971.9    0.00 
 212    5:10   0.00   55.9    87    0.7    13     2.7   972.0    0.00 
 212    5:20   0.00   55.7    86    0.5    16     2.2   972.0    0.00 
 212    5:30   0.01   55.6    86    0.4   241     1.7   972.1    0.00 
 212    5:40   0.01   55.7    85    0.9     1     2.1   972.1    0.00 
 212    5:50   0.02   55.6    85    0.3     4     2.3   972.1    0.00 
 212    6:00   0.07   56.4    84    0.8    59     1.7   972.1    0.00 
 212    6:10   0.10   57.1    83    0.5   149     1.7   972.1    0.00 
 212    6:20   0.12   58.2    88    0.4   184     1.6   971.9    0.00 
 212    6:30   0.16   60.0    82    0.9    80     2.4   971.9    0.00 
 212    6:40   0.19   62.7    75    0.9    89     2.2   971.9    0.00 
 212    6:50   0.22   63.6    75    1.6   107     2.8   971.9    0.00 
 212    7:00   0.25   64.4    73    0.5   126     2.3   971.9    0.00 
 212    7:10   0.28   66.4    70    1.1    95     2.8   972.0    0.00 
 212    7:20   0.32   67.6    68    0.3   208     1.2   972.0    0.00 
 212    7:30   0.35   69.9    63    0.3   168     1.5   972.2    0.00 
 212    7:40   0.39   71.3    60    1.7   140     3.7   972.2    0.00 
 212    7:50   0.42   70.9    61    3.1   140     5.1   972.4    0.00 
 212    8:00   0.45   73.2    57    2.5   110     4.2   972.4    0.00 
 212    8:10   0.48   73.9    56    3.6   132     5.6   972.4    0.00 
 212    8:20   0.51   74.5    56    3.4   130     5.8   972.4    0.00 
 212    8:30   0.54   76.3    54    2.9   123     5.1   972.4    0.00 
 212    8:40   0.57   78.7    50    3.4   126     5.5   972.3    0.00 
 212    8:50   0.60   78.7    50    4.2   116     6.3   972.3    0.00 
 212    9:00   0.63   80.3    48    4.7   118     6.8   972.2    0.00 
 212    9:10   0.66   80.7    47    4.4   124     6.7   972.2    0.00 
 212    9:20   0.68   82.5    44    4.5   122     8.4   972.3    0.00 
 212    9:30   0.71   82.9    44    4.2   132     6.9   972.3    0.00 
 212    9:40   0.73   83.8    43    4.5   144     6.9   972.2    0.00 
 212    9:50   0.76   83.9    41    3.8   232     8.0   972.2    0.00 

Return to Sedgwick Reserve graphs page.


Western Regional Climate Center,wrcc@dri.edu